createdAt,value
2023-08-17T00:06:34.971Z,18.78
2023-08-17T00:11:40.008Z,18.76
2023-08-17T00:16:43.894Z,18.86
2023-08-17T00:21:47.873Z,18.66
2023-08-17T00:26:52.789Z,18.43
2023-08-17T00:31:56.280Z,18.36
2023-08-17T00:36:59.899Z,18.23
2023-08-17T00:42:05.083Z,18.50
2023-08-17T00:47:08.490Z,18.52
2023-08-17T00:52:12.287Z,18.51
2023-08-17T00:57:17.218Z,18.53
2023-08-17T01:02:21.624Z,18.51
2023-08-17T01:07:25.377Z,18.65
2023-08-17T01:12:32.728Z,18.50
2023-08-17T01:17:40.720Z,18.34
2023-08-17T01:22:44.865Z,18.63
2023-08-17T01:27:49.705Z,18.55
2023-08-17T01:32:56.721Z,18.14
2023-08-17T01:38:02.144Z,17.94
2023-08-17T01:43:07.460Z,18.07
2023-08-17T01:48:10.928Z,18.12
2023-08-17T01:53:15.153Z,18.22
2023-08-17T01:58:20.087Z,18.22
2023-08-17T02:03:23.640Z,18.24
2023-08-17T02:08:27.288Z,18.37
2023-08-17T02:13:32.319Z,18.05
2023-08-17T02:18:40.129Z,18.15
2023-08-17T02:23:43.645Z,18.13
2023-08-17T02:28:48.332Z,18.03
2023-08-17T02:33:51.975Z,18.29
2023-08-17T02:38:55.520Z,18.46
2023-08-17T02:44:00.462Z,18.39
2023-08-17T02:49:04.562Z,18.30
2023-08-17T02:54:08.455Z,18.11
2023-08-17T02:59:13.152Z,18.35
2023-08-17T03:04:16.582Z,18.36
2023-08-17T03:09:19.920Z,18.14
2023-08-17T03:14:25.516Z,17.67
2023-08-17T03:19:29.021Z,18.06
2023-08-17T03:24:32.514Z,18.01
2023-08-17T03:29:37.475Z,17.95
2023-08-17T03:34:40.845Z,17.98
2023-08-17T03:39:44.535Z,17.98
2023-08-17T03:44:49.346Z,17.63
2023-08-17T03:49:54.155Z,17.47
2023-08-17T03:54:57.470Z,17.75
2023-08-17T04:00:02.388Z,17.76
2023-08-17T04:05:07.101Z,17.53
2023-08-17T04:10:11.163Z,17.65
2023-08-17T04:15:16.132Z,17.66
2023-08-17T04:20:20.516Z,17.52
2023-08-17T04:25:23.892Z,17.54
2023-08-17T04:30:30.190Z,17.65
2023-08-17T04:35:37.563Z,17.56
2023-08-17T04:40:41.016Z,17.42
2023-08-17T04:45:48.991Z,17.43
2023-08-17T04:50:53.736Z,17.50
2023-08-17T04:55:57.319Z,17.52
2023-08-17T05:01:02.806Z,17.58
2023-08-17T05:06:06.346Z,17.70
2023-08-17T05:11:11.464Z,17.74
2023-08-17T05:16:16.623Z,17.98
2023-08-17T05:21:20.134Z,17.77
2023-08-17T05:26:23.822Z,18.08
2023-08-17T05:31:28.820Z,18.44
2023-08-17T05:36:33.118Z,18.48
2023-08-17T05:41:36.468Z,18.65
2023-08-17T05:46:41.173Z,18.82
2023-08-17T05:51:44.752Z,18.95
2023-08-17T05:56:48.631Z,19.42
2023-08-17T06:01:53.393Z,20.03
2023-08-17T06:06:57.347Z,20.35
2023-08-17T06:12:00.639Z,20.26
2023-08-17T06:17:05.959Z,20.16
2023-08-17T06:22:09.435Z,21.57
2023-08-17T06:27:16.221Z,22.31
2023-08-17T06:32:21.041Z,22.86
2023-08-17T06:37:24.608Z,24.09
2023-08-17T06:42:28.221Z,23.81
2023-08-17T06:47:33.088Z,24.64
2023-08-17T06:52:36.411Z,24.02
2023-08-17T06:57:40.063Z,25.09
2023-08-17T07:02:53.662Z,25.65
2023-08-17T07:08:00.349Z,23.97
2023-08-17T07:13:04.467Z,24.35
2023-08-17T07:18:09.546Z,23.91
2023-08-17T07:23:12.859Z,22.93
2023-08-17T07:28:17.026Z,23.04
2023-08-17T07:33:21.761Z,23.07
2023-08-17T07:38:25.158Z,22.82
2023-08-17T07:43:28.416Z,23.44
2023-08-17T07:48:34.955Z,23.53
2023-08-17T07:53:38.844Z,23.26
2023-08-17T07:58:42.245Z,22.69
2023-08-17T08:03:47.353Z,22.99
2023-08-17T08:08:50.937Z,22.98
2023-08-17T08:13:54.221Z,23.16
2023-08-17T08:18:59.189Z,23.65
2023-08-17T08:24:02.657Z,24.12
2023-08-17T08:29:06.381Z,24.12
2023-08-17T08:34:11.009Z,24.62
2023-08-17T08:39:14.789Z,23.99
2023-08-17T08:44:18.393Z,23.73
2023-08-17T08:49:25.623Z,24.67
2023-08-17T08:54:29.682Z,25.11
2023-08-17T08:59:33.720Z,24.86
2023-08-17T09:04:38.533Z,24.83
2023-08-17T09:09:42.233Z,24.90
2023-08-17T09:14:45.668Z,25.20
2023-08-17T09:19:51.565Z,25.10
2023-08-17T09:24:54.721Z,25.07
2023-08-17T09:30:04.680Z,24.61
2023-08-17T09:35:10.378Z,24.10
2023-08-17T09:40:13.931Z,23.42
2023-08-17T09:45:19.835Z,24.33
2023-08-17T09:50:26.309Z,24.39
2023-08-17T09:55:29.972Z,24.69
2023-08-17T10:00:33.931Z,24.21
2023-08-17T10:05:41.160Z,24.24
2023-08-17T10:10:46.563Z,25.17
2023-08-17T10:15:55.488Z,25.24
2023-08-17T10:21:05.998Z,25.08
2023-08-17T10:26:10.115Z,25.36
2023-08-17T10:31:13.660Z,25.45
2023-08-17T10:36:19.093Z,25.41
2023-08-17T10:41:22.627Z,25.09
2023-08-17T10:46:36.556Z,25.36
2023-08-17T10:51:45.508Z,25.20
2023-08-17T10:56:48.931Z,25.38
2023-08-17T11:01:54.186Z,25.66
2023-08-17T11:07:05.187Z,25.59
2023-08-17T11:12:08.722Z,25.91
2023-08-17T11:17:11.934Z,25.71
2023-08-17T11:22:19.184Z,25.27
2023-08-17T11:27:23.621Z,25.73
2023-08-17T11:32:27.156Z,25.78
2023-08-17T11:37:32.178Z,25.41
2023-08-17T11:42:35.657Z,25.51
2023-08-17T11:47:40.432Z,25.67
2023-08-17T11:52:46.667Z,25.44
2023-08-17T11:57:50.078Z,24.99
2023-08-17T12:02:54.432Z,25.53
2023-08-17T12:07:59.410Z,25.33
2023-08-17T12:13:02.853Z,25.48
2023-08-17T12:18:07.016Z,25.76
2023-08-17T12:23:11.836Z,25.68
2023-08-17T12:28:15.337Z,25.62
2023-08-17T12:33:18.723Z,25.86
2023-08-17T12:38:25.689Z,25.53
2023-08-17T12:43:29.260Z,25.94
2023-08-17T12:48:36.189Z,26.49
2023-08-17T12:53:41.613Z,26.51
2023-08-17T12:58:45.306Z,26.44
2023-08-17T13:03:48.819Z,26.06
2023-08-17T13:08:53.557Z,25.41
2023-08-17T13:13:57.029Z,24.89
2023-08-17T13:19:00.218Z,25.16
2023-08-17T13:24:05.631Z,24.63
2023-08-17T13:29:10.303Z,24.29
2023-08-17T13:34:13.660Z,24.79
2023-08-17T13:39:18.408Z,25.01
2023-08-17T13:44:21.800Z,25.33
2023-08-17T13:49:25.285Z,25.12
2023-08-17T13:54:30.869Z,25.13
2023-08-17T13:59:34.321Z,25.00
2023-08-17T14:04:37.562Z,25.03
2023-08-17T14:09:46.637Z,24.80
2023-08-17T14:14:57.747Z,24.72
2023-08-17T14:20:01.322Z,24.47
2023-08-17T14:25:07.315Z,24.38
2023-08-17T14:30:11.029Z,24.10
2023-08-17T14:35:14.547Z,24.21
2023-08-17T14:40:19.757Z,24.29
2023-08-17T14:45:23.498Z,24.34
2023-08-17T14:50:29.075Z,23.95
2023-08-17T14:55:34.218Z,23.83
2023-08-17T15:00:37.830Z,23.87
2023-08-17T15:05:41.933Z,24.06
2023-08-17T15:10:46.981Z,24.49
2023-08-17T15:15:50.482Z,24.49
2023-08-17T15:20:55.435Z,24.72
2023-08-17T15:26:00.286Z,24.81
2023-08-17T15:31:05.575Z,24.41
2023-08-17T15:36:09.079Z,24.35
2023-08-17T15:41:13.730Z,24.64
2023-08-17T15:46:17.173Z,24.93
2023-08-17T15:51:20.572Z,24.67
2023-08-17T15:56:25.568Z,24.66
2023-08-17T16:01:29.943Z,24.62
2023-08-17T16:06:33.269Z,24.91
2023-08-17T16:11:38.147Z,24.88
2023-08-17T16:16:41.643Z,25.19
2023-08-17T16:21:45.129Z,24.90
2023-08-17T16:26:49.833Z,24.54
2023-08-17T16:32:09.025Z,24.75
2023-08-17T16:37:12.915Z,24.68
2023-08-17T16:42:19.375Z,24.77
2023-08-17T16:47:27.253Z,24.85
2023-08-17T16:52:30.845Z,23.98
2023-08-17T16:57:35.867Z,23.91
2023-08-17T17:02:39.129Z,23.85
2023-08-17T17:07:43.251Z,23.92
2023-08-17T17:12:48.139Z,23.77
2023-08-17T17:17:51.651Z,23.65
2023-08-17T17:22:54.966Z,23.66
2023-08-17T17:27:59.977Z,23.86
2023-08-17T17:33:03.265Z,23.52
2023-08-17T17:38:06.631Z,23.60
2023-08-17T17:43:11.267Z,23.40
2023-08-17T17:48:14.750Z,23.01
2023-08-17T17:53:18.515Z,23.41
2023-08-17T17:58:23.291Z,23.23
2023-08-17T18:03:29.017Z,23.10
2023-08-17T18:08:34.054Z,22.87
2023-08-17T18:13:38.895Z,22.97
2023-08-17T18:18:42.143Z,22.49
2023-08-17T18:23:45.337Z,22.68
2023-08-17T18:28:50.117Z,22.70
2023-08-17T18:33:53.417Z,22.76
2023-08-17T18:38:56.654Z,22.23
2023-08-17T18:44:01.339Z,21.99
2023-08-17T18:49:04.799Z,22.11
2023-08-17T18:54:08.374Z,22.25
2023-08-17T18:59:12.857Z,22.34
2023-08-17T19:04:16.076Z,22.41
2023-08-17T19:09:19.310Z,22.10
2023-08-17T19:14:24.277Z,22.31
2023-08-17T19:19:27.651Z,22.17
2023-08-17T19:24:31.172Z,22.16
2023-08-17T19:29:36.020Z,22.18
2023-08-17T19:34:39.955Z,22.00
2023-08-17T19:39:43.301Z,21.82
2023-08-17T19:44:48.138Z,21.84
2023-08-17T19:49:51.575Z,21.56
2023-08-17T19:54:55.712Z,21.56
2023-08-17T20:00:00.412Z,21.57
2023-08-17T20:05:05.428Z,21.19
2023-08-17T20:10:09.705Z,21.10
2023-08-17T20:15:14.859Z,21.38
2023-08-17T20:20:20.037Z,21.44
2023-08-17T20:25:23.336Z,21.26
2023-08-17T20:30:28.224Z,21.15
2023-08-17T20:35:31.443Z,21.34
2023-08-17T20:40:34.675Z,21.18
2023-08-17T20:45:40.758Z,21.14
2023-08-17T20:50:46.322Z,21.11
2023-08-17T20:55:50.995Z,20.97
2023-08-17T21:00:56.951Z,20.56
2023-08-17T21:06:04.766Z,20.72
2023-08-17T21:11:08.867Z,20.60
2023-08-17T21:16:13.794Z,20.63
2023-08-17T21:21:17.216Z,20.58
2023-08-17T21:26:20.714Z,20.53
2023-08-17T21:31:25.537Z,20.25
2023-08-17T21:36:29.390Z,20.32
2023-08-17T21:41:32.628Z,20.21
2023-08-17T21:46:37.534Z,19.99
2023-08-17T21:51:41.104Z,20.01
2023-08-17T21:56:44.678Z,19.93
2023-08-17T22:01:49.458Z,19.93
2023-08-17T22:06:52.750Z,19.86
2023-08-17T22:11:56.090Z,19.65
2023-08-17T22:17:00.755Z,19.59
2023-08-17T22:22:05.610Z,19.63
2023-08-17T22:27:08.954Z,19.59
2023-08-17T22:32:13.889Z,19.35
2023-08-17T22:37:18.714Z,19.25
2023-08-17T22:42:22.611Z,19.27
2023-08-17T22:47:27.611Z,19.20
2023-08-17T22:52:31.241Z,19.07
2023-08-17T22:57:34.635Z,19.03
2023-08-17T23:02:39.321Z,18.97
2023-08-17T23:07:42.750Z,18.76
2023-08-17T23:12:46.126Z,18.65
2023-08-17T23:17:51.121Z,18.51
2023-08-17T23:22:54.468Z,18.55
2023-08-17T23:27:58.009Z,18.48
2023-08-17T23:33:02.849Z,18.37
2023-08-17T23:38:06.410Z,18.31
2023-08-17T23:43:09.647Z,18.19
2023-08-17T23:48:14.468Z,18.09
2023-08-17T23:53:18.134Z,17.99
2023-08-17T23:58:22.266Z,17.59
